createdAt,value
2022-11-18T00:01:14.316Z,28.85
2022-11-18T00:03:43.151Z,29.00
2022-11-18T00:06:21.079Z,27.58
2022-11-18T00:08:48.452Z,26.70
2022-11-18T00:11:38.901Z,24.52
2022-11-18T00:14:22.247Z,24.15
2022-11-18T00:17:07.577Z,23.80
2022-11-18T00:19:39.921Z,28.07
2022-11-18T00:22:11.778Z,26.45
2022-11-18T00:24:39.095Z,35.13
2022-11-18T00:27:06.157Z,26.60
2022-11-18T00:29:33.367Z,25.92
2022-11-18T00:32:00.424Z,32.70
2022-11-18T00:34:27.483Z,25.30
2022-11-18T00:36:54.654Z,27.42
2022-11-18T00:39:22.091Z,27.77
2022-11-18T00:42:08.343Z,27.25
2022-11-18T00:44:35.828Z,27.67
2022-11-18T00:47:03.402Z,24.75
2022-11-18T00:49:30.779Z,26.48
2022-11-18T00:51:57.861Z,26.85
2022-11-18T00:54:25.026Z,25.30
2022-11-18T00:56:52.069Z,30.90
2022-11-18T00:59:19.432Z,27.33
2022-11-18T01:01:46.788Z,25.83
2022-11-18T01:04:13.891Z,25.13
2022-11-18T01:06:41.586Z,23.23
2022-11-18T01:09:08.700Z,29.83
2022-11-18T01:11:54.321Z,30.15
2022-11-18T01:14:23.587Z,27.27
2022-11-18T01:16:53.418Z,30.55
2022-11-18T01:19:20.927Z,28.42
2022-11-18T01:21:48.081Z,30.33
2022-11-18T01:24:15.598Z,42.30
2022-11-18T01:26:42.836Z,37.10
2022-11-18T01:29:10.277Z,34.33
2022-11-18T01:31:50.127Z,33.80
2022-11-18T01:34:29.291Z,35.08
2022-11-18T01:36:58.040Z,44.25
2022-11-18T01:39:25.664Z,36.58
2022-11-18T01:41:52.762Z,33.20
2022-11-18T01:44:57.228Z,33.50
2022-11-18T01:47:32.130Z,31.63
2022-11-18T01:50:00.676Z,39.90
2022-11-18T01:52:28.930Z,35.90
2022-11-18T01:55:03.925Z,33.85
2022-11-18T01:57:32.491Z,44.00
2022-11-18T02:00:03.936Z,41.42
2022-11-18T02:02:34.014Z,46.55
2022-11-18T02:05:03.345Z,41.67
2022-11-18T02:07:33.036Z,38.35
2022-11-18T02:10:05.170Z,41.13
2022-11-18T02:12:32.918Z,44.40
2022-11-18T02:15:01.568Z,46.60
2022-11-18T02:18:16.650Z,51.47
2022-11-18T02:20:47.494Z,42.78
2022-11-18T02:23:55.482Z,49.70
2022-11-18T02:26:28.015Z,52.22
2022-11-18T02:29:25.774Z,42.65
2022-11-18T02:32:00.607Z,47.67
2022-11-18T02:35:19.043Z,53.38
2022-11-18T02:37:58.976Z,38.67
2022-11-18T02:40:47.222Z,52.28
2022-11-18T02:43:24.671Z,56.15
2022-11-18T02:45:58.542Z,42.22
2022-11-18T02:48:29.083Z,46.00
2022-11-18T02:50:57.720Z,49.60
2022-11-18T02:53:26.097Z,52.28
2022-11-18T02:55:54.443Z,43.72
2022-11-18T02:58:23.335Z,49.35
2022-11-18T03:00:57.780Z,48.35
2022-11-18T03:03:36.448Z,40.30
2022-11-18T03:06:33.104Z,46.13
2022-11-18T03:09:06.229Z,39.47
2022-11-18T03:12:08.882Z,36.53
2022-11-18T03:15:18.869Z,32.10
2022-11-18T03:18:07.053Z,38.75
2022-11-18T03:20:49.483Z,35.30
2022-11-18T03:23:54.159Z,33.95
2022-11-18T03:26:35.681Z,35.70
2022-11-18T03:29:21.477Z,37.90
2022-11-18T03:32:10.532Z,42.45
2022-11-18T03:34:46.900Z,41.47
2022-11-18T03:37:16.764Z,38.83
2022-11-18T03:39:53.516Z,36.75
2022-11-18T03:42:40.872Z,38.08
2022-11-18T03:45:20.085Z,34.88
2022-11-18T03:47:59.965Z,39.90
2022-11-18T03:50:32.936Z,37.03
2022-11-18T03:53:02.213Z,46.05
2022-11-18T03:55:35.642Z,33.65
2022-11-18T03:58:34.599Z,36.03
2022-11-18T04:01:21.565Z,33.90
2022-11-18T04:03:48.793Z,37.42
2022-11-18T04:06:34.215Z,37.20
2022-11-18T04:09:09.328Z,37.67
2022-11-18T04:12:05.529Z,40.00
2022-11-18T04:14:37.842Z,37.40
2022-11-18T04:17:22.501Z,43.97
2022-11-18T04:19:49.903Z,41.47
2022-11-18T04:22:18.087Z,37.40
2022-11-18T04:24:45.372Z,39.83
2022-11-18T04:27:13.057Z,46.72
2022-11-18T04:29:40.239Z,38.92
2022-11-18T04:32:07.458Z,39.20
2022-11-18T04:34:34.512Z,39.90
2022-11-18T04:37:01.739Z,43.15
2022-11-18T04:39:29.068Z,47.05
2022-11-18T04:41:56.145Z,40.53
2022-11-18T04:44:23.828Z,41.30
2022-11-18T04:46:51.214Z,43.05
2022-11-18T04:49:19.026Z,41.35
2022-11-18T04:51:47.154Z,53.70
2022-11-18T04:54:15.633Z,39.10
2022-11-18T04:56:48.976Z,40.38
2022-11-18T04:59:24.246Z,37.60
2022-11-18T05:01:52.239Z,43.47
2022-11-18T05:04:26.437Z,49.03
2022-11-18T05:06:53.608Z,48.05
2022-11-18T05:09:21.177Z,39.83
2022-11-18T05:12:07.426Z,44.65
2022-11-18T05:14:34.776Z,43.10
2022-11-18T05:17:03.885Z,38.33
2022-11-18T05:19:31.091Z,37.08
2022-11-18T05:21:58.671Z,40.22
2022-11-18T05:24:25.925Z,32.83
2022-11-18T05:26:54.133Z,31.90
2022-11-18T05:29:22.216Z,35.65
2022-11-18T05:31:50.133Z,32.05
2022-11-18T05:34:18.492Z,36.92
2022-11-18T05:36:45.691Z,41.03
2022-11-18T05:39:12.728Z,34.63
2022-11-18T05:41:58.393Z,36.90
2022-11-18T05:44:25.420Z,42.28
2022-11-18T05:46:52.570Z,37.60
2022-11-18T05:49:19.937Z,34.22
2022-11-18T05:51:47.280Z,39.03
2022-11-18T05:54:17.218Z,33.90
2022-11-18T05:56:45.246Z,36.80
2022-11-18T05:59:13.896Z,30.50
2022-11-18T06:01:53.133Z,38.58
2022-11-18T06:05:00.111Z,44.25
2022-11-18T06:07:41.975Z,37.17
2022-11-18T06:10:37.436Z,41.45
2022-11-18T06:13:11.123Z,43.10
2022-11-18T06:15:42.831Z,38.67
2022-11-18T06:18:28.917Z,36.03
2022-11-18T06:21:01.561Z,38.42
2022-11-18T06:23:42.691Z,42.13
2022-11-18T06:26:12.142Z,36.40
2022-11-18T06:28:40.616Z,36.20
2022-11-18T06:31:07.833Z,36.17
2022-11-18T06:33:35.091Z,37.38
2022-11-18T06:36:02.201Z,33.58
2022-11-18T06:38:29.334Z,36.35
2022-11-18T06:41:01.384Z,42.45
2022-11-18T06:43:43.849Z,32.10
2022-11-18T06:46:34.508Z,32.63
2022-11-18T06:49:03.092Z,38.70
2022-11-18T06:51:30.447Z,38.65
2022-11-18T06:53:57.542Z,38.78
2022-11-18T06:56:24.988Z,33.90
2022-11-18T06:58:58.186Z,41.72
2022-11-18T07:01:32.670Z,40.08
2022-11-18T07:04:01.028Z,35.92
2022-11-18T07:06:31.926Z,37.47
2022-11-18T07:09:02.129Z,38.13
2022-11-18T07:11:29.577Z,34.30
2022-11-18T07:13:56.818Z,35.65
2022-11-18T07:16:26.558Z,30.73
2022-11-18T07:18:55.413Z,44.15
2022-11-18T07:21:25.918Z,38.97
2022-11-18T07:23:53.969Z,32.85
2022-11-18T07:26:21.841Z,35.58
2022-11-18T07:28:49.549Z,31.27
2022-11-18T07:31:20.620Z,27.48
2022-11-18T07:33:48.923Z,32.72
2022-11-18T07:36:24.406Z,32.67
2022-11-18T07:38:52.171Z,33.67
2022-11-18T07:41:25.267Z,34.15
2022-11-18T07:43:58.997Z,40.67
2022-11-18T07:46:39.781Z,30.98
2022-11-18T07:49:11.350Z,30.77
2022-11-18T07:51:40.275Z,40.65
2022-11-18T07:54:13.814Z,36.10
2022-11-18T07:56:47.330Z,43.28
2022-11-18T07:59:14.383Z,36.20
2022-11-18T08:01:41.660Z,43.78
2022-11-18T08:04:12.387Z,46.08
2022-11-18T08:06:40.374Z,40.35
2022-11-18T08:09:08.948Z,45.53
2022-11-18T08:11:36.368Z,47.97
2022-11-18T08:14:04.320Z,48.08
2022-11-18T08:16:31.396Z,48.90
2022-11-18T08:19:00.279Z,46.58
2022-11-18T08:21:27.699Z,44.75
2022-11-18T08:23:57.654Z,46.92
2022-11-18T08:26:25.580Z,51.55
2022-11-18T08:28:53.751Z,39.65
2022-11-18T08:31:27.606Z,40.90
2022-11-18T08:34:06.685Z,36.72
2022-11-18T08:36:37.157Z,42.40
2022-11-18T08:39:08.482Z,44.55
2022-11-18T08:41:43.862Z,47.50
2022-11-18T08:44:15.100Z,36.17
2022-11-18T08:46:45.960Z,41.70
2022-11-18T08:49:13.075Z,42.08
2022-11-18T08:51:40.232Z,43.83
2022-11-18T08:54:07.271Z,39.85
2022-11-18T08:56:34.397Z,44.70
2022-11-18T08:59:01.428Z,42.22
2022-11-18T09:01:28.695Z,41.60
2022-11-18T09:03:57.664Z,33.00
2022-11-18T09:06:25.211Z,38.10
2022-11-18T09:08:52.949Z,33.78
2022-11-18T09:11:24.770Z,31.27
2022-11-18T09:16:45.634Z,24.20
2022-11-18T09:19:40.102Z,28.92
2022-11-18T09:22:00.114Z,32.00
2022-11-18T09:24:27.368Z,24.35
2022-11-18T09:26:54.410Z,27.65
2022-11-18T09:29:25.535Z,22.63
2022-11-18T09:31:54.527Z,23.08
2022-11-18T09:34:22.857Z,20.50
2022-11-18T09:36:51.159Z,21.25
2022-11-18T09:39:18.556Z,21.58
2022-11-18T09:42:02.356Z,23.65
2022-11-18T09:44:41.017Z,26.08
2022-11-18T09:47:27.370Z,21.88
2022-11-18T09:50:14.938Z,25.95
2022-11-18T09:53:07.163Z,22.83
2022-11-18T09:55:38.813Z,28.52
2022-11-18T09:58:07.155Z,27.17
2022-11-18T10:00:34.586Z,27.40
2022-11-18T10:03:12.535Z,24.05
2022-11-18T10:05:42.544Z,25.67
2022-11-18T10:08:40.876Z,26.02
2022-11-18T10:11:21.413Z,30.10
2022-11-18T10:14:12.217Z,26.63
2022-11-18T10:17:19.565Z,30.08
2022-11-18T10:20:42.400Z,26.17
2022-11-18T10:23:40.864Z,24.85
2022-11-18T10:26:07.901Z,27.83
2022-11-18T10:28:35.288Z,24.52
2022-11-18T10:31:11.764Z,27.02
2022-11-18T10:33:39.624Z,25.27
2022-11-18T10:36:38.048Z,26.50
2022-11-18T10:39:15.373Z,32.38
2022-11-18T10:41:52.354Z,34.47
2022-11-18T10:44:41.187Z,27.40
2022-11-18T10:47:28.777Z,30.85
2022-11-18T10:50:01.982Z,31.48
2022-11-18T10:52:30.170Z,22.35
2022-11-18T10:55:14.095Z,24.33
2022-11-18T10:57:45.718Z,22.52
2022-11-18T11:00:46.957Z,20.27
2022-11-18T11:03:33.370Z,22.80
2022-11-18T11:06:32.318Z,19.85
2022-11-18T11:09:09.784Z,20.67
2022-11-18T11:11:43.904Z,18.13
2022-11-18T11:14:48.382Z,19.63
2022-11-18T11:17:29.840Z,20.55
2022-11-18T11:20:04.587Z,22.17
2022-11-18T11:22:32.010Z,24.70
2022-11-18T11:24:59.140Z,23.80
2022-11-18T11:30:45.364Z,18.83
2022-11-18T11:33:39.352Z,20.65
2022-11-18T11:36:15.413Z,16.42
2022-11-18T11:39:04.814Z,22.17
2022-11-18T11:41:59.893Z,24.25
2022-11-18T11:44:59.988Z,20.77
2022-11-18T11:47:57.151Z,20.27
2022-11-18T11:51:03.059Z,18.52
2022-11-18T11:54:00.591Z,21.23
2022-11-18T11:56:46.386Z,19.33
2022-11-18T11:59:30.830Z,18.67
2022-11-18T12:02:01.982Z,16.60
2022-11-18T12:05:12.614Z,16.67
2022-11-18T12:07:56.565Z,17.42
2022-11-18T12:10:59.971Z,19.95
2022-11-18T12:13:39.283Z,23.55
2022-11-18T12:16:35.325Z,16.27
2022-11-18T12:19:16.876Z,23.65
2022-11-18T12:21:47.329Z,16.90
2022-11-18T12:24:23.128Z,19.45
2022-11-18T12:29:21.586Z,21.23
2022-11-18T12:31:59.982Z,22.20
2022-11-18T12:34:36.414Z,18.23
2022-11-18T12:37:26.263Z,29.83
2022-11-18T12:39:56.407Z,22.13
2022-11-18T12:43:05.285Z,24.90
2022-11-18T12:45:41.577Z,22.40
2022-11-18T12:48:29.393Z,26.13
2022-11-18T12:51:19.229Z,27.88
2022-11-18T12:53:51.889Z,36.75
2022-11-18T12:56:24.681Z,26.92
2022-11-18T12:59:00.898Z,26.63
2022-11-18T13:01:34.427Z,26.85
2022-11-18T13:04:18.170Z,28.55
2022-11-18T13:06:45.830Z,32.17
2022-11-18T13:09:24.791Z,29.20
2022-11-18T13:12:04.042Z,26.33
2022-11-18T13:14:59.104Z,28.00
2022-11-18T13:17:54.614Z,22.38
2022-11-18T13:20:33.460Z,21.70
2022-11-18T13:23:49.254Z,27.48
2022-11-18T13:26:32.573Z,23.80
2022-11-18T13:29:05.293Z,22.13
2022-11-18T13:32:01.850Z,25.48
2022-11-18T13:34:31.884Z,20.95
2022-11-18T13:37:00.920Z,22.00
2022-11-18T13:39:33.247Z,24.35
2022-11-18T13:42:23.935Z,20.38
2022-11-18T13:45:02.677Z,17.38
2022-11-18T13:47:54.638Z,24.30
2022-11-18T13:51:00.372Z,21.40
2022-11-18T13:53:39.124Z,18.27
2022-11-18T13:56:22.051Z,20.67
2022-11-18T14:01:53.231Z,18.45
2022-11-18T14:04:24.067Z,20.95
2022-11-18T14:06:51.179Z,20.40
2022-11-18T14:09:31.759Z,17.75
2022-11-18T14:15:33.236Z,22.20
2022-11-18T14:18:02.361Z,24.73
2022-11-18T14:20:31.026Z,22.10
2022-11-18T14:23:03.677Z,16.60
2022-11-18T14:25:34.789Z,11.35
2022-11-18T14:28:22.095Z,13.68
2022-11-18T14:31:21.752Z,11.45
2022-11-18T14:34:27.224Z,11.13
2022-11-18T14:36:56.558Z,14.10
2022-11-18T14:39:29.419Z,9.77
2022-11-18T14:41:57.968Z,11.00
2022-11-18T14:44:27.723Z,10.25
2022-11-18T14:47:03.941Z,9.10
2022-11-18T14:49:32.852Z,8.80
2022-11-18T14:52:04.679Z,12.50
2022-11-18T14:54:31.813Z,10.23
2022-11-18T14:57:03.190Z,12.05
2022-11-18T14:59:30.502Z,9.32
2022-11-18T15:01:58.809Z,10.55
2022-11-18T15:04:26.296Z,11.50
2022-11-18T15:06:53.827Z,15.23
2022-11-18T15:09:21.345Z,14.48
2022-11-18T15:11:48.392Z,17.15
2022-11-18T15:14:15.845Z,12.13
2022-11-18T15:16:43.149Z,15.05
2022-11-18T15:19:16.068Z,15.98
2022-11-18T15:21:45.536Z,19.13
2022-11-18T15:24:12.826Z,17.10
2022-11-18T15:26:43.980Z,16.90
2022-11-18T15:29:25.449Z,21.52
2022-11-18T15:31:52.705Z,24.52
2022-11-18T15:34:21.597Z,21.90
2022-11-18T15:36:49.303Z,20.92
2022-11-18T15:39:16.777Z,19.63
2022-11-18T15:41:44.649Z,15.68
2022-11-18T15:44:12.370Z,20.50
2022-11-18T15:46:40.167Z,16.83
2022-11-18T15:49:09.741Z,18.48
2022-11-18T15:51:37.600Z,20.13
2022-11-18T15:54:06.433Z,18.10
2022-11-18T15:56:34.195Z,18.27
2022-11-18T15:59:15.634Z,16.67
2022-11-18T16:01:46.420Z,19.70
2022-11-18T16:04:17.250Z,18.88
2022-11-18T16:06:45.281Z,18.50
2022-11-18T16:09:14.976Z,18.15
2022-11-18T16:12:01.101Z,15.45
2022-11-18T16:14:30.973Z,17.20
2022-11-18T16:16:58.226Z,18.35
2022-11-18T16:19:27.650Z,19.48
2022-11-18T16:21:57.395Z,21.10
2022-11-18T16:24:28.784Z,17.13
2022-11-18T16:26:56.748Z,19.40
2022-11-18T16:29:24.797Z,19.50
2022-11-18T16:31:54.224Z,17.83
2022-11-18T16:34:27.823Z,17.80
2022-11-18T16:36:58.188Z,20.40
2022-11-18T16:39:28.562Z,18.55
2022-11-18T16:42:06.825Z,19.23
2022-11-18T16:44:35.914Z,22.63
2022-11-18T16:47:12.451Z,23.57
2022-11-18T16:49:42.426Z,20.50
2022-11-18T16:52:10.169Z,19.38
2022-11-18T16:54:43.176Z,17.73
2022-11-18T16:57:13.453Z,20.10
2022-11-18T16:59:40.851Z,21.63
2022-11-18T17:02:14.472Z,24.03
2022-11-18T17:04:41.710Z,21.63
2022-11-18T17:07:08.853Z,24.03
2022-11-18T17:09:36.318Z,21.73
2022-11-18T17:12:03.976Z,24.87
2022-11-18T17:14:31.617Z,19.77
2022-11-18T17:16:59.280Z,25.97
2022-11-18T17:19:26.880Z,21.13
2022-11-18T17:21:54.337Z,22.57
2022-11-18T17:24:23.752Z,28.57
2022-11-18T17:26:52.995Z,29.90
2022-11-18T17:29:21.444Z,33.07
2022-11-18T17:31:50.296Z,29.63
2022-11-18T17:34:18.290Z,27.57
2022-11-18T17:36:47.272Z,26.87
2022-11-18T17:39:14.358Z,25.03
2022-11-18T17:42:00.166Z,28.50
2022-11-18T17:44:29.233Z,26.45
2022-11-18T17:46:56.625Z,29.67
2022-11-18T17:49:24.241Z,24.03
2022-11-18T17:51:51.719Z,27.23
2022-11-18T17:54:20.571Z,27.97
2022-11-18T17:56:48.722Z,32.27
2022-11-18T17:59:17.580Z,40.33
2022-11-18T18:01:46.230Z,37.70
2022-11-18T18:04:21.742Z,40.00
2022-11-18T18:06:51.350Z,35.50
2022-11-18T18:09:30.409Z,35.30
2022-11-18T18:12:00.777Z,35.80
2022-11-18T18:14:28.268Z,35.77
2022-11-18T18:16:56.267Z,41.00
2022-11-18T18:19:24.539Z,45.00
2022-11-18T18:21:53.605Z,42.20
2022-11-18T18:24:21.804Z,36.03
2022-11-18T18:26:50.071Z,36.53
2022-11-18T18:29:17.870Z,38.53
2022-11-18T18:31:45.860Z,33.40
2022-11-18T18:34:13.376Z,36.40
2022-11-18T18:36:41.275Z,34.23
2022-11-18T18:39:09.153Z,35.83
2022-11-18T18:41:38.831Z,37.23
2022-11-18T18:44:06.454Z,34.53
2022-11-18T18:46:34.102Z,34.73
2022-11-18T18:49:22.513Z,33.70
2022-11-18T18:51:50.482Z,34.40
2022-11-18T18:54:20.649Z,34.87
2022-11-18T18:56:48.590Z,39.67
2022-11-18T18:59:18.355Z,36.50
2022-11-18T19:01:46.300Z,38.87
2022-11-18T19:04:14.393Z,39.53
2022-11-18T19:06:58.270Z,39.60
2022-11-18T19:09:27.615Z,39.30
2022-11-18T19:12:14.165Z,43.67
2022-11-18T19:14:42.659Z,40.20
2022-11-18T19:17:12.961Z,46.27
2022-11-18T19:20:00.996Z,42.43
2022-11-18T19:22:34.032Z,37.77
2022-11-18T19:25:02.535Z,42.90
2022-11-18T19:27:30.790Z,45.57
2022-11-18T19:30:01.216Z,44.60
2022-11-18T19:32:29.274Z,37.80
2022-11-18T19:34:57.282Z,45.80
2022-11-18T19:37:25.032Z,41.87
2022-11-18T19:39:52.596Z,39.57
2022-11-18T19:42:20.246Z,43.57
2022-11-18T19:44:48.023Z,46.67
2022-11-18T19:47:15.898Z,48.97
2022-11-18T19:49:44.298Z,50.53
2022-11-18T19:52:12.247Z,47.67
2022-11-18T19:54:42.964Z,53.47
2022-11-18T19:57:10.921Z,48.20
2022-11-18T19:59:38.743Z,48.80
2022-11-18T20:02:07.078Z,49.57
2022-11-18T20:04:35.230Z,49.63
2022-11-18T20:07:05.741Z,49.30
2022-11-18T20:09:33.060Z,47.93
2022-11-18T20:12:00.749Z,48.83
2022-11-18T20:14:28.385Z,53.77
2022-11-18T20:16:55.840Z,54.70
2022-11-18T20:19:23.982Z,52.67
2022-11-18T20:21:56.528Z,49.40
2022-11-18T20:24:25.853Z,44.20
2022-11-18T20:26:53.573Z,46.87
2022-11-18T20:29:21.645Z,48.67
2022-11-18T20:31:49.443Z,53.40
2022-11-18T20:34:17.193Z,50.20
2022-11-18T20:36:47.495Z,52.70
2022-11-18T20:39:17.577Z,44.57
2022-11-18T20:42:12.799Z,55.93
2022-11-18T20:44:40.475Z,52.00
2022-11-18T20:47:08.191Z,48.43
2022-11-18T20:49:35.775Z,49.13
2022-11-18T20:52:03.163Z,50.50
2022-11-18T20:54:31.169Z,56.97
2022-11-18T20:57:00.088Z,50.30
2022-11-18T20:59:27.807Z,52.30
2022-11-18T21:01:55.605Z,43.40
2022-11-18T21:04:22.990Z,47.87
2022-11-18T21:06:52.392Z,48.07
2022-11-18T21:09:20.158Z,48.87
2022-11-18T21:11:47.769Z,46.90
2022-11-18T21:14:23.285Z,47.30
2022-11-18T21:17:01.370Z,47.63
2022-11-18T21:19:29.870Z,52.30
2022-11-18T21:21:58.241Z,51.57
2022-11-18T21:24:32.206Z,50.60
2022-11-18T21:27:01.889Z,47.87
2022-11-18T21:29:31.971Z,48.60
2022-11-18T21:32:03.354Z,50.50
2022-11-18T21:34:30.767Z,49.47
2022-11-18T21:36:58.215Z,51.57
2022-11-18T21:39:26.108Z,54.30
2022-11-18T21:41:56.719Z,52.40
2022-11-18T21:44:26.241Z,50.43
2022-11-18T21:46:53.664Z,49.77
2022-11-18T21:49:20.957Z,53.93
2022-11-18T21:51:48.477Z,56.37
2022-11-18T21:54:18.198Z,47.43
2022-11-18T21:56:45.699Z,51.40
2022-11-18T21:59:12.787Z,55.47
2022-11-18T22:01:39.967Z,48.93
2022-11-18T22:04:07.505Z,49.87
2022-11-18T22:06:35.197Z,58.93
2022-11-18T22:09:04.351Z,54.50
2022-11-18T22:11:31.736Z,59.73
2022-11-18T22:13:59.112Z,58.23
2022-11-18T22:16:27.398Z,52.40
2022-11-18T22:19:03.657Z,56.83
2022-11-18T22:21:32.343Z,54.83
2022-11-18T22:24:01.255Z,51.50
2022-11-18T22:26:29.397Z,56.43
2022-11-18T22:28:58.375Z,55.13
2022-11-18T22:31:28.033Z,49.77
2022-11-18T22:33:56.764Z,49.47
2022-11-18T22:36:27.083Z,45.03
2022-11-18T22:38:55.363Z,49.17
2022-11-18T22:41:44.202Z,46.33
2022-11-18T22:44:13.969Z,39.60
2022-11-18T22:46:44.586Z,50.87
2022-11-18T22:49:13.049Z,46.37
2022-11-18T22:51:40.733Z,49.77
2022-11-18T22:56:59.238Z,47.40
2022-11-18T22:59:26.364Z,49.93
2022-11-18T23:01:53.903Z,47.40
2022-11-18T23:04:21.318Z,49.97
2022-11-18T23:06:49.714Z,47.93
2022-11-18T23:09:17.632Z,47.03
2022-11-18T23:12:04.145Z,46.47
2022-11-18T23:16:59.104Z,49.27
2022-11-18T23:19:26.260Z,54.23
2022-11-18T23:21:53.337Z,54.43
2022-11-18T23:24:20.492Z,55.80
2022-11-18T23:26:47.956Z,57.43
2022-11-18T23:29:15.863Z,55.07
2022-11-18T23:31:44.746Z,52.87
2022-11-18T23:34:14.293Z,61.40
2022-11-18T23:36:42.443Z,62.60
2022-11-18T23:39:10.028Z,51.90
2022-11-18T23:41:37.315Z,63.70
2022-11-18T23:44:05.361Z,68.80
2022-11-18T23:46:33.248Z,62.57
2022-11-18T23:49:00.670Z,54.77
2022-11-18T23:51:27.863Z,55.83
2022-11-18T23:53:57.444Z,56.03
2022-11-18T23:56:27.264Z,54.47
2022-11-18T23:58:56.734Z,60.23
